createdAt,value
2018-03-22T00:00:46.979Z,74.88
2018-03-22T00:01:46.965Z,74.98
2018-03-22T00:02:47.207Z,74.98
2018-03-22T00:03:47.193Z,75.07
2018-03-22T00:04:47.181Z,74.79
2018-03-22T00:05:47.175Z,74.69
2018-03-22T00:06:47.155Z,74.88
2018-03-22T00:07:47.142Z,74.98
2018-03-22T00:08:47.132Z,74.69
2018-03-22T00:09:47.116Z,74.79
2018-03-22T00:10:47.111Z,74.88
2018-03-22T00:11:46.843Z,74.69
2018-03-22T00:12:47.078Z,74.98
2018-03-22T00:13:47.104Z,74.88
2018-03-22T00:14:46.798Z,74.88
2018-03-22T00:15:47.039Z,74.88
2018-03-22T00:16:47.031Z,74.69
2018-03-22T00:17:47.036Z,74.98
2018-03-22T00:18:46.746Z,74.98
2018-03-22T00:19:46.989Z,74.88
2018-03-22T00:20:46.721Z,74.88
2018-03-22T00:21:46.963Z,75.07
2018-03-22T00:22:46.950Z,75.26
2018-03-22T00:23:46.939Z,75.17
2018-03-22T00:24:46.923Z,75.55
2018-03-22T00:25:46.912Z,75.74
2018-03-22T00:26:46.898Z,75.93
2018-03-22T00:27:46.884Z,75.74
2018-03-22T00:28:46.874Z,75.74
2018-03-22T00:29:46.860Z,75.64
2018-03-22T00:30:46.850Z,75.55
2018-03-22T00:31:46.835Z,75.64
2018-03-22T00:32:46.820Z,75.55
2018-03-22T00:33:46.808Z,75.55
2018-03-22T00:34:46.792Z,75.93
2018-03-22T00:35:46.782Z,75.74
2018-03-22T00:36:46.764Z,76.59
2018-03-22T00:37:46.752Z,76.31
2018-03-22T00:38:46.742Z,76.87
2018-03-22T00:39:46.737Z,76.68
2018-03-22T00:40:46.460Z,76.4
2018-03-22T00:41:46.448Z,76.59
2018-03-22T00:42:46.697Z,76.78
2018-03-22T00:43:46.679Z,77.25
2018-03-22T00:44:46.670Z,77.16
2018-03-22T00:45:46.648Z,77.83
2018-03-22T00:46:46.637Z,78.39
2018-03-22T00:47:46.623Z,78.87
2018-03-22T00:48:46.617Z,79.53
2018-03-22T00:49:46.603Z,80
2018-03-22T00:50:46.585Z,80.29
2018-03-22T00:51:46.577Z,81.33
2018-03-22T00:52:46.558Z,81.14
2018-03-22T00:53:46.546Z,81.71
2018-03-22T00:54:46.535Z,82.18
2018-03-22T00:55:46.522Z,81.99
2018-03-22T00:56:46.512Z,83.04
2018-03-22T00:57:46.496Z,82.75
2018-03-22T00:58:46.482Z,83.51
2018-03-22T00:59:46.470Z,84.08
2018-03-22T01:00:46.460Z,85.03
2018-03-22T01:01:46.444Z,84.84
2018-03-22T01:02:46.431Z,85.78
2018-03-22T01:03:46.432Z,85.88
2018-03-22T01:04:46.406Z,85.78
2018-03-22T01:05:46.392Z,85.6
2018-03-22T01:06:46.126Z,85.78
2018-03-22T01:07:46.369Z,86.26
2018-03-22T01:08:46.354Z,86.74
2018-03-22T01:09:46.348Z,86.74
2018-03-22T01:10:46.369Z,86.45
2018-03-22T01:11:46.316Z,86.64
2018-03-22T01:12:46.303Z,86.93
2018-03-22T01:13:46.288Z,86.45
2018-03-22T01:14:46.286Z,86.45
2018-03-22T01:15:46.263Z,87.59
2018-03-22T01:16:46.268Z,87.3
2018-03-22T01:17:46.239Z,87.54
2018-03-22T01:18:46.225Z,88.16
2018-03-22T01:19:45.958Z,87.77
2018-03-22T01:20:46.205Z,87.77
2018-03-22T01:21:45.932Z,87.83
2018-03-22T01:22:46.190Z,88.21
2018-03-22T01:23:46.162Z,87.83
2018-03-22T01:24:45.893Z,87.54
2018-03-22T01:25:46.132Z,87.07
2018-03-22T01:26:46.121Z,86.41
2018-03-22T01:27:46.112Z,86.5
2018-03-22T01:28:46.097Z,86.79
2018-03-22T01:29:46.091Z,86.98
2018-03-22T01:30:46.069Z,86.74
2018-03-22T01:31:46.063Z,86.79
2018-03-22T01:32:46.042Z,87.12
2018-03-22T01:33:46.031Z,86.88
2018-03-22T01:34:46.018Z,87.4
2018-03-22T01:35:45.750Z,87.68
2018-03-22T01:36:45.990Z,87.49
2018-03-22T01:37:45.986Z,86.93
2018-03-22T01:38:45.967Z,87.12
2018-03-22T01:39:45.951Z,86.93
2018-03-22T01:40:45.939Z,86.74
2018-03-22T01:41:45.673Z,86.74
2018-03-22T01:42:45.918Z,86.45
2018-03-22T01:43:45.899Z,87.4
2018-03-22T01:44:45.887Z,88.25
2018-03-22T01:45:45.883Z,88.21
2018-03-22T01:46:45.863Z,89.15
2018-03-22T01:47:45.849Z,89.2
2018-03-22T01:48:45.838Z,89.01
2018-03-22T01:49:45.569Z,89.58
2018-03-22T01:50:45.810Z,89.39
2018-03-22T01:51:45.796Z,89.82
2018-03-22T01:52:45.792Z,89.63
2018-03-22T01:53:45.769Z,90.1
2018-03-22T01:54:45.758Z,90.48
2018-03-22T01:55:45.750Z,90.67
2018-03-22T01:56:45.478Z,91.14
2018-03-22T01:57:45.718Z,91.52
2018-03-22T01:58:45.706Z,92.19
2018-03-22T01:59:45.440Z,92.47
2018-03-22T02:00:45.426Z,92.19
2018-03-22T02:01:45.718Z,92.85
2018-03-22T02:02:45.653Z,93.13
2018-03-22T02:03:45.387Z,93.7
2018-03-22T02:04:45.627Z,93.32
2018-03-22T02:05:45.615Z,92.94
2018-03-22T02:06:45.606Z,92.94
2018-03-22T02:07:45.334Z,92.76
2018-03-22T02:08:45.321Z,93.04
2018-03-22T02:09:45.560Z,93.23
2018-03-22T02:10:45.551Z,93.13
2018-03-22T02:11:45.538Z,93.32
2018-03-22T02:12:45.520Z,92.94
2018-03-22T02:13:45.514Z,92.85
2018-03-22T02:14:45.506Z,93.04
2018-03-22T02:15:45.482Z,93.23
2018-03-22T02:16:45.470Z,92.85
2018-03-22T02:17:45.455Z,92.85
2018-03-22T02:18:45.443Z,92.66
2018-03-22T02:19:45.428Z,93.13
2018-03-22T02:20:45.417Z,92.66
2018-03-22T02:21:45.405Z,93.42
2018-03-22T02:22:45.388Z,93.04
2018-03-22T02:23:45.376Z,92.76
2018-03-22T02:24:45.377Z,92.85
2018-03-22T02:25:45.351Z,92.66
2018-03-22T02:26:45.082Z,92.76
2018-03-22T02:27:45.329Z,92.94
2018-03-22T02:28:45.309Z,92.85
2018-03-22T02:29:45.298Z,92.76
2018-03-22T02:30:45.287Z,92.76
2018-03-22T02:31:45.279Z,92.94
2018-03-22T02:32:45.003Z,92.66
2018-03-22T02:33:45.244Z,92.47
2018-03-22T02:34:45.229Z,91.9
2018-03-22T02:35:44.971Z,92.09
2018-03-22T02:36:44.950Z,92.28
2018-03-22T02:37:45.207Z,92
2018-03-22T02:38:45.183Z,92.57
2018-03-22T02:39:44.920Z,91.9
2018-03-22T02:40:44.897Z,91.62
2018-03-22T02:41:44.886Z,92.28
2018-03-22T02:42:45.248Z,91.9
2018-03-22T02:43:45.118Z,92
2018-03-22T02:44:45.096Z,92.38
2018-03-22T02:45:45.084Z,92.28
2018-03-22T02:46:44.818Z,91.62
2018-03-22T02:47:44.807Z,91.52
2018-03-22T02:48:45.047Z,91.71
2018-03-22T02:49:45.039Z,91.71
2018-03-22T02:50:45.023Z,91.43
2018-03-22T02:51:45.006Z,91.43
2018-03-22T02:52:44.736Z,91.52
2018-03-22T02:53:44.978Z,91.33
2018-03-22T02:54:44.965Z,91.52
2018-03-22T02:55:44.958Z,91.05
2018-03-22T02:56:44.936Z,90.77
2018-03-22T02:57:44.931Z,91.05
2018-03-22T02:58:44.909Z,90.86
2018-03-22T02:59:44.900Z,90.86
2018-03-22T03:00:44.881Z,90.86
2018-03-22T03:01:44.876Z,91.05
2018-03-22T03:02:44.867Z,90.67
2018-03-22T03:03:44.844Z,90.77
2018-03-22T03:04:44.829Z,90.67
2018-03-22T03:05:44.820Z,90.58
2018-03-22T03:06:44.809Z,90.77
2018-03-22T03:07:44.791Z,90.95
2018-03-22T03:08:44.776Z,90.39
2018-03-22T03:09:44.765Z,90.48
2018-03-22T03:10:44.748Z,90.1
2018-03-22T03:11:44.483Z,90.2
2018-03-22T03:12:44.723Z,90.29
2018-03-22T03:13:44.710Z,89.82
2018-03-22T03:14:44.695Z,89.63
2018-03-22T03:15:44.683Z,89.44
2018-03-22T03:16:44.668Z,89.06
2018-03-22T03:17:44.659Z,88.96
2018-03-22T03:18:44.391Z,88.4
2018-03-22T03:19:44.630Z,88.4
2018-03-22T03:20:44.363Z,88.87
2018-03-22T03:21:44.602Z,88.78
2018-03-22T03:22:44.594Z,88.4
2018-03-22T03:23:44.576Z,88.21
2018-03-22T03:24:44.569Z,88.02
2018-03-22T03:25:44.550Z,88.02
2018-03-22T03:26:44.290Z,88.02
2018-03-22T03:27:44.271Z,88.02
2018-03-22T03:28:44.510Z,88.4
2018-03-22T03:29:44.496Z,87.83
2018-03-22T03:30:44.486Z,87.92
2018-03-22T03:31:44.474Z,87.73
2018-03-22T03:32:44.456Z,87.07
2018-03-22T03:33:44.443Z,87.16
2018-03-22T03:34:44.431Z,86.98
2018-03-22T03:35:44.417Z,87.45
2018-03-22T03:36:44.403Z,87.07
2018-03-22T03:37:44.390Z,87.07
2018-03-22T03:38:44.383Z,87.07
2018-03-22T03:39:44.362Z,86.88
2018-03-22T03:40:44.352Z,86.98
2018-03-22T03:41:44.341Z,86.6
2018-03-22T03:42:44.327Z,86.88
2018-03-22T03:43:44.310Z,86.5
2018-03-22T03:44:44.298Z,86.88
2018-03-22T03:45:44.284Z,86.69
2018-03-22T03:46:44.281Z,87.07
2018-03-22T03:47:44.259Z,86.5
2018-03-22T03:48:44.245Z,86.5
2018-03-22T03:49:44.231Z,86.69
2018-03-22T03:50:44.220Z,86.5
2018-03-22T03:51:44.207Z,86.69
2018-03-22T03:52:44.196Z,86.69
2018-03-22T03:53:44.188Z,86.69
2018-03-22T03:54:44.164Z,86.5
2018-03-22T03:55:44.151Z,86.22
2018-03-22T03:56:44.139Z,86.22
2018-03-22T03:57:44.138Z,86.69
2018-03-22T03:58:44.110Z,86.5
2018-03-22T03:59:44.099Z,86.5
2018-03-22T04:00:44.090Z,86.5
2018-03-22T04:01:44.070Z,86.69
2018-03-22T04:02:44.062Z,86.31
2018-03-22T04:03:44.044Z,86.79
2018-03-22T04:04:44.035Z,86.5
2018-03-22T04:05:44.018Z,86.03
2018-03-22T04:06:43.751Z,86.08
2018-03-22T04:07:43.998Z,86.31
2018-03-22T04:08:43.980Z,85.84
2018-03-22T04:09:43.963Z,85.74
2018-03-22T04:10:43.950Z,85.84
2018-03-22T04:11:43.940Z,85.46
2018-03-22T04:12:43.922Z,85.84
2018-03-22T04:13:43.909Z,85.27
2018-03-22T04:14:43.899Z,85.55
2018-03-22T04:15:43.887Z,85.84
2018-03-22T04:16:43.868Z,85.46
2018-03-22T04:17:43.856Z,86.03
2018-03-22T04:18:43.841Z,85.74
2018-03-22T04:19:43.575Z,85.84
2018-03-22T04:20:43.815Z,85.84
2018-03-22T04:21:43.802Z,85.74
2018-03-22T04:22:43.787Z,85.74
2018-03-22T04:23:43.775Z,85.55
2018-03-22T04:24:43.760Z,85.36
2018-03-22T04:25:43.748Z,85.65
2018-03-22T04:26:43.739Z,85.17
2018-03-22T04:27:43.466Z,85.42
2018-03-22T04:28:43.708Z,85.51
2018-03-22T04:29:43.693Z,85.99
2018-03-22T04:30:43.678Z,85.93
2018-03-22T04:31:43.708Z,85.74
2018-03-22T04:32:43.652Z,85.8
2018-03-22T04:33:43.638Z,85.99
2018-03-22T04:34:43.624Z,85.74
2018-03-22T04:35:43.664Z,85.89
2018-03-22T04:36:43.598Z,85.89
2018-03-22T04:37:43.332Z,85.89
2018-03-22T04:38:43.571Z,85.74
2018-03-22T04:39:43.558Z,85.7
2018-03-22T04:40:43.291Z,85.61
2018-03-22T04:41:43.530Z,85.61
2018-03-22T04:42:43.517Z,85.74
2018-03-22T04:43:43.510Z,85.46
2018-03-22T04:44:43.492Z,85.55
2018-03-22T04:45:43.475Z,85.23
2018-03-22T04:46:43.468Z,85.46
2018-03-22T04:47:43.196Z,85.08
2018-03-22T04:48:43.436Z,84.99
2018-03-22T04:49:43.422Z,84.89
2018-03-22T04:50:43.408Z,84.89
2018-03-22T04:51:43.399Z,85.04
2018-03-22T04:52:43.388Z,84.89
2018-03-22T04:53:43.374Z,84.94
2018-03-22T04:54:43.354Z,84.89
2018-03-22T04:55:43.341Z,84.99
2018-03-22T04:56:43.334Z,84.89
2018-03-22T04:57:43.313Z,84.89
2018-03-22T04:58:43.048Z,84.8
2018-03-22T04:59:43.035Z,84.8
2018-03-22T05:00:43.274Z,84.99
2018-03-22T05:01:43.008Z,84.89
2018-03-22T05:02:43.247Z,84.99
2018-03-22T05:03:42.980Z,84.99
2018-03-22T05:04:43.224Z,84.8
2018-03-22T05:05:43.206Z,85.08
2018-03-22T05:06:43.195Z,85.08
2018-03-22T05:07:43.180Z,84.8
2018-03-22T05:08:43.174Z,84.89
2018-03-22T05:09:43.159Z,84.8
2018-03-22T05:10:43.148Z,84.7
2018-03-22T05:11:42.875Z,85.27
2018-03-22T05:12:43.113Z,85.55
2018-03-22T05:13:43.098Z,85.17
2018-03-22T05:14:43.095Z,85.27
2018-03-22T05:15:43.070Z,85.27
2018-03-22T05:16:43.058Z,84.8
2018-03-22T05:17:43.045Z,85.08
2018-03-22T05:18:43.080Z,85.27
2018-03-22T05:19:43.016Z,85.74
2018-03-22T05:20:42.752Z,85.55
2018-03-22T05:21:42.996Z,85.46
2018-03-22T05:22:42.978Z,85.27
2018-03-22T05:23:42.968Z,85.46
2018-03-22T05:24:42.698Z,85.36
2018-03-22T05:25:42.941Z,85.65
2018-03-22T05:26:42.924Z,85.84
2018-03-22T05:27:42.658Z,85.84
2018-03-22T05:28:42.898Z,86.03
2018-03-22T05:29:42.887Z,85.84
2018-03-22T05:30:42.871Z,86.31
2018-03-22T05:31:42.858Z,86.31
2018-03-22T05:32:42.854Z,86.6
2018-03-22T05:33:42.577Z,86.6
2018-03-22T05:34:42.564Z,86.5
2018-03-22T05:35:42.806Z,86.69
2018-03-22T05:36:42.536Z,86.69
2018-03-22T05:37:42.531Z,86.22
2018-03-22T05:38:42.766Z,86.5
2018-03-22T05:39:42.497Z,86.5
2018-03-22T05:40:42.734Z,86.41
2018-03-22T05:41:42.470Z,86.6
2018-03-22T05:42:42.483Z,86.41
2018-03-22T05:43:42.700Z,86.5
2018-03-22T05:44:42.430Z,86.6
2018-03-22T05:45:42.685Z,86.31
2018-03-22T05:46:42.657Z,86.31
2018-03-22T05:47:42.642Z,86.12
2018-03-22T05:48:42.377Z,86.88
2018-03-22T05:49:42.364Z,86.5
2018-03-22T05:50:42.350Z,86.5
2018-03-22T05:51:42.591Z,86.69
2018-03-22T05:52:42.588Z,86.22
2018-03-22T05:53:42.311Z,86.12
2018-03-22T05:54:42.306Z,86.31
2018-03-22T05:55:42.540Z,86.31
2018-03-22T05:56:42.528Z,86.12
2018-03-22T05:57:42.529Z,85.65
2018-03-22T05:58:42.244Z,85.93
2018-03-22T05:59:42.484Z,86.03
2018-03-22T06:00:42.483Z,85.6
2018-03-22T06:01:42.205Z,85.69
2018-03-22T06:02:42.191Z,85.69
2018-03-22T06:03:42.178Z,85.13
2018-03-22T06:04:42.440Z,85.6
2018-03-22T06:05:42.410Z,85.41
2018-03-22T06:06:42.139Z,85.22
2018-03-22T06:07:42.380Z,85.31
2018-03-22T06:08:42.121Z,85.03
2018-03-22T06:09:42.352Z,85.13
2018-03-22T06:10:42.340Z,85.03
2018-03-22T06:11:42.075Z,85.13
2018-03-22T06:12:42.315Z,85.41
2018-03-22T06:13:42.302Z,85.41
2018-03-22T06:14:42.297Z,85.03
2018-03-22T06:15:42.289Z,84.94
2018-03-22T06:16:42.517Z,85.22
2018-03-22T06:17:42.251Z,85.22
2018-03-22T06:18:42.240Z,85.13
2018-03-22T06:19:42.228Z,85.22
2018-03-22T06:20:42.219Z,85.03
2018-03-22T06:21:42.205Z,84.94
2018-03-22T06:22:42.194Z,84.94
2018-03-22T06:23:42.180Z,85.03
2018-03-22T06:24:41.909Z,85.41
2018-03-22T06:25:41.912Z,84.84
2018-03-22T06:26:42.137Z,84.65
2018-03-22T06:27:42.126Z,85.31
2018-03-22T06:28:42.111Z,84.74
2018-03-22T06:29:42.100Z,84.74
2018-03-22T06:30:42.091Z,83.98
2018-03-22T06:31:42.090Z,84.36
2018-03-22T06:32:42.061Z,84.36
2018-03-22T06:33:42.048Z,84.27
2018-03-22T06:34:42.039Z,84.55
2018-03-22T06:35:42.023Z,84.36
2018-03-22T06:36:42.010Z,84.17
2018-03-22T06:37:41.998Z,83.89
2018-03-22T06:38:41.985Z,83.7
2018-03-22T06:39:41.979Z,83.61
2018-03-22T06:40:41.707Z,83.23
2018-03-22T06:41:42.000Z,82.75
2018-03-22T06:42:41.944Z,83.61
2018-03-22T06:43:41.925Z,83.7
2018-03-22T06:44:41.911Z,82.75
2018-03-22T06:45:41.898Z,82.94
2018-03-22T06:46:41.892Z,83.04
2018-03-22T06:47:41.876Z,82.7
2018-03-22T06:48:41.607Z,81.85
2018-03-22T06:49:41.865Z,81.94
2018-03-22T06:50:41.835Z,81.85
2018-03-22T06:51:41.823Z,81.37
2018-03-22T06:52:41.815Z,81.09
2018-03-22T06:53:41.863Z,80.9
2018-03-22T06:54:41.795Z,80.04
2018-03-22T06:55:41.774Z,79.28
2018-03-22T06:56:41.789Z,78.85
2018-03-22T06:57:41.765Z,78.19
2018-03-22T06:58:41.746Z,78.47
2018-03-22T06:59:41.728Z,78.56
2018-03-22T07:00:41.724Z,77.43
2018-03-22T07:01:41.707Z,77.71
2018-03-22T07:02:41.723Z,77.24
2018-03-22T07:03:41.694Z,77.43
2018-03-22T07:04:41.683Z,76.95
2018-03-22T07:05:41.661Z,76.76
2018-03-22T07:06:41.656Z,77.14
2018-03-22T07:07:41.642Z,77.24
2018-03-22T07:08:41.370Z,77.05
2018-03-22T07:09:41.612Z,76.76
2018-03-22T07:10:41.603Z,77.14
2018-03-22T07:11:41.611Z,76.67
2018-03-22T07:12:41.583Z,76.76
2018-03-22T07:13:41.568Z,77.24
2018-03-22T07:14:41.728Z,76.86
2018-03-22T07:15:41.572Z,76.76
2018-03-22T07:16:41.557Z,76.57
2018-03-22T07:17:41.529Z,76.95
2018-03-22T07:18:41.318Z,76.86
2018-03-22T07:19:41.246Z,76.76
2018-03-22T07:20:41.488Z,77.14
2018-03-22T07:21:41.224Z,77.62
2018-03-22T07:22:41.464Z,77.24
2018-03-22T07:23:41.201Z,77.33
2018-03-22T07:24:41.443Z,77.71
2018-03-22T07:25:41.435Z,77.33
2018-03-22T07:26:41.169Z,77.33
2018-03-22T07:27:41.157Z,77.62
2018-03-22T07:28:41.398Z,77.33
2018-03-22T07:29:41.385Z,77.81
2018-03-22T07:30:41.375Z,78.28
2018-03-22T07:31:41.363Z,78.19
2018-03-22T07:32:41.356Z,78.85
2018-03-22T07:33:41.347Z,79.33
2018-03-22T07:34:41.330Z,80.65
2018-03-22T07:35:41.323Z,81.6
2018-03-22T07:36:41.312Z,83.03
2018-03-22T07:37:41.299Z,84.55
2018-03-22T07:38:41.293Z,85.4
2018-03-22T07:39:41.274Z,85.21
2018-03-22T07:40:41.264Z,86.35
2018-03-22T07:41:41.001Z,87.2
2018-03-22T07:42:41.239Z,87.49
2018-03-22T07:43:41.230Z,87.96
2018-03-22T07:44:41.240Z,87.68
2018-03-22T07:45:41.211Z,87.77
2018-03-22T07:46:40.942Z,88.53
2018-03-22T07:47:41.184Z,88.53
2018-03-22T07:48:40.920Z,87.96
2018-03-22T07:49:41.164Z,87.96
2018-03-22T07:50:41.157Z,89.29
2018-03-22T07:51:41.139Z,90.43
2018-03-22T07:52:41.257Z,90.71
2018-03-22T07:53:41.120Z,91.14
2018-03-22T07:54:41.111Z,92.66
2018-03-22T07:55:41.099Z,94.46
2018-03-22T07:56:41.084Z,95.03
2018-03-22T07:57:41.073Z,95.79
2018-03-22T07:58:41.065Z,95.98
2018-03-22T07:59:41.056Z,96.03
2018-03-22T08:00:41.040Z,97.45
2018-03-22T08:01:40.771Z,97.73
2018-03-22T08:02:41.027Z,99.44
2018-03-22T08:03:41.000Z,99.99
2018-03-22T08:04:40.734Z,99.99
2018-03-22T08:05:40.976Z,99.99
2018-03-22T08:06:40.966Z,99.99
2018-03-22T08:07:40.951Z,99.99
2018-03-22T08:08:40.959Z,99.99
2018-03-22T08:09:40.928Z,99.99
2018-03-22T08:10:40.913Z,99.99
2018-03-22T08:11:40.904Z,99.99
2018-03-22T08:12:40.637Z,99.99
2018-03-22T08:13:40.885Z,99.99
2018-03-22T08:14:40.866Z,99.53
2018-03-22T08:15:40.611Z,98.77
2018-03-22T08:16:40.843Z,98.68
2018-03-22T08:17:40.828Z,98.3
2018-03-22T08:18:40.834Z,98.49
2018-03-22T08:19:40.802Z,98.58
2018-03-22T08:20:40.801Z,98.68
2018-03-22T08:21:40.777Z,98.02
2018-03-22T08:22:40.764Z,97.83
2018-03-22T08:23:40.754Z,97.83
2018-03-22T08:24:40.488Z,97.16
2018-03-22T08:25:40.728Z,97.83
2018-03-22T08:26:40.971Z,96.97
2018-03-22T08:27:40.456Z,97.07
2018-03-22T08:28:40.691Z,97.07
2018-03-22T08:29:40.678Z,96.97
2018-03-22T08:30:40.675Z,96.88
2018-03-22T08:31:40.658Z,97.26
2018-03-22T08:32:40.713Z,97.26
2018-03-22T08:33:40.379Z,96.12
2018-03-22T08:34:40.631Z,95.74
2018-03-22T08:35:40.604Z,95.93
2018-03-22T08:36:40.596Z,95.65
2018-03-22T08:37:40.588Z,95.55
2018-03-22T08:38:40.577Z,95.36
2018-03-22T08:39:40.310Z,95.17
2018-03-22T08:40:40.543Z,95.36
2018-03-22T08:41:40.535Z,95.26
2018-03-22T08:42:40.548Z,94.46
2018-03-22T08:43:40.262Z,94.51
2018-03-22T08:44:40.502Z,94.13
2018-03-22T08:45:40.489Z,94.51
2018-03-22T08:46:40.474Z,93.84
2018-03-22T08:47:40.502Z,94.51
2018-03-22T08:48:40.458Z,95.36
2018-03-22T08:49:40.444Z,95.36
2018-03-22T08:50:40.492Z,94.6
2018-03-22T08:51:40.429Z,94.7
2018-03-22T08:52:40.161Z,95.26
2018-03-22T08:53:40.411Z,95.55
2018-03-22T08:54:40.391Z,95.26
2018-03-22T08:55:40.365Z,95.26
2018-03-22T08:56:40.356Z,95.55
2018-03-22T08:57:40.596Z,95.36
2018-03-22T08:58:40.372Z,95.65
2018-03-22T08:59:40.363Z,95.65
2018-03-22T09:00:40.327Z,95.93
2018-03-22T09:01:40.289Z,96.31
2018-03-22T09:02:40.286Z,96.08
2018-03-22T09:03:40.269Z,95.88
2018-03-22T09:04:40.274Z,94.93
2018-03-22T09:05:39.987Z,95.03
2018-03-22T09:06:40.250Z,94.74
2018-03-22T09:07:40.234Z,95.12
2018-03-22T09:08:40.224Z,95.22
2018-03-22T09:09:39.951Z,95.98
2018-03-22T09:10:40.204Z,95.88
2018-03-22T09:11:40.402Z,95.88
2018-03-22T09:12:40.156Z,95.69
2018-03-22T09:13:39.897Z,95.79
2018-03-22T09:14:40.141Z,96.64
2018-03-22T09:15:39.885Z,96.17
2018-03-22T09:16:40.138Z,96.17
2018-03-22T09:17:40.123Z,96.64
2018-03-22T09:18:40.355Z,96.45
2018-03-22T09:19:40.116Z,96.26
2018-03-22T09:20:40.116Z,96.36
2018-03-22T09:21:39.803Z,96.45
2018-03-22T09:22:40.070Z,96.26
2018-03-22T09:23:40.348Z,97.21
2018-03-22T09:24:39.778Z,97.59
2018-03-22T09:25:39.787Z,97.78
2018-03-22T09:26:40.038Z,98.25
2018-03-22T09:27:40.007Z,98.16
2018-03-22T09:28:40.247Z,98.07
2018-03-22T09:29:39.981Z,98.25
2018-03-22T09:30:39.951Z,98.35
2018-03-22T09:31:40.000Z,98.44
2018-03-22T09:32:39.959Z,98.54
2018-03-22T09:33:39.933Z,98.3
2018-03-22T09:34:39.905Z,98.21
2018-03-22T09:35:39.913Z,98.11
2018-03-22T09:36:39.921Z,98.4
2018-03-22T09:37:39.901Z,98.02
2018-03-22T09:38:39.970Z,98.02
2018-03-22T09:39:39.866Z,98.02
2018-03-22T09:40:39.842Z,97.55
2018-03-22T09:41:39.842Z,97.88
2018-03-22T09:42:39.818Z,97.78
2018-03-22T09:43:39.812Z,97.6
2018-03-22T09:44:39.798Z,97.22
2018-03-22T09:45:39.792Z,97.31
2018-03-22T09:46:39.777Z,96.64
2018-03-22T09:47:39.774Z,96.08
2018-03-22T09:48:39.757Z,96.26
2018-03-22T09:49:39.490Z,96.08
2018-03-22T09:50:39.781Z,95.98
2018-03-22T09:51:39.723Z,95.98
2018-03-22T09:52:39.746Z,96.08
2018-03-22T09:53:39.715Z,95.31
2018-03-22T09:54:39.696Z,95.22
2018-03-22T09:55:39.698Z,95.7
2018-03-22T09:56:39.735Z,95.51
2018-03-22T09:57:39.702Z,95.31
2018-03-22T09:58:39.406Z,95.31
2018-03-22T09:59:39.657Z,95.51
2018-03-22T10:00:39.641Z,95.41
2018-03-22T10:01:39.636Z,96.08
2018-03-22T10:02:39.615Z,95.31
2018-03-22T10:03:39.620Z,95.31
2018-03-22T10:04:39.593Z,95.12
2018-03-22T10:05:39.577Z,95.12
2018-03-22T10:06:39.574Z,95.31
2018-03-22T10:07:39.558Z,95.6
2018-03-22T10:08:39.551Z,95.98
2018-03-22T10:09:39.555Z,96.17
2018-03-22T10:10:39.532Z,95.98
2018-03-22T10:11:39.519Z,96.45
2018-03-22T10:12:39.513Z,96.93
2018-03-22T10:13:39.499Z,96.74
2018-03-22T10:14:39.485Z,95.79
2018-03-22T10:15:39.483Z,96.59
2018-03-22T10:16:39.467Z,96.17
2018-03-22T10:17:39.460Z,95.74
2018-03-22T10:18:39.444Z,97.07
2018-03-22T10:19:39.434Z,97.17
2018-03-22T10:20:39.432Z,97.64
2018-03-22T10:21:39.453Z,98.11
2018-03-22T10:22:39.155Z,97.64
2018-03-22T10:23:39.408Z,97.64
2018-03-22T10:24:39.380Z,97.74
2018-03-22T10:25:39.371Z,98.4
2018-03-22T10:26:39.359Z,97.92
2018-03-22T10:27:39.352Z,98.4
2018-03-22T10:28:39.344Z,98.11
2018-03-22T10:29:39.335Z,98.68
2018-03-22T10:30:39.355Z,98.3
2018-03-22T10:31:39.305Z,98.44
2018-03-22T10:32:39.305Z,99.77
2018-03-22T10:33:39.286Z,99.77
2018-03-22T10:34:39.287Z,99.77
2018-03-22T10:35:39.265Z,99.82
2018-03-22T10:36:39.255Z,99.39
2018-03-22T10:37:39.238Z,99.87
2018-03-22T10:38:39.259Z,99.99
2018-03-22T10:39:39.222Z,99.99
2018-03-22T10:40:39.208Z,99.99
2018-03-22T10:41:39.192Z,99.99
2018-03-22T10:42:39.232Z,99.99
2018-03-22T10:43:39.177Z,99.99
2018-03-22T10:44:38.925Z,99.99
2018-03-22T10:45:39.158Z,99.99
2018-03-22T10:46:39.141Z,99.99
2018-03-22T10:47:39.133Z,99.99
2018-03-22T10:48:39.165Z,99.96
2018-03-22T10:49:39.165Z,99.49
2018-03-22T10:50:39.106Z,99.87
2018-03-22T10:51:39.080Z,99.99
2018-03-22T10:52:39.095Z,99.99
2018-03-22T10:53:39.063Z,99.99
2018-03-22T10:54:39.051Z,99.99
2018-03-22T10:55:39.341Z,99.99
2018-03-22T10:56:39.046Z,99.99
2018-03-22T10:57:39.026Z,99.99
2018-03-22T10:58:38.997Z,99.99
2018-03-22T10:59:38.997Z,99.99
2018-03-22T11:00:38.990Z,99.99
2018-03-22T11:01:38.973Z,99.99
2018-03-22T11:02:38.979Z,99.99
2018-03-22T11:03:38.942Z,99.99
2018-03-22T11:04:38.948Z,99.99
2018-03-22T11:05:38.924Z,99.99
2018-03-22T11:06:38.917Z,99.99
2018-03-22T11:07:38.895Z,99.99
2018-03-22T11:08:38.884Z,99.99
2018-03-22T11:09:38.870Z,99.99
2018-03-22T11:10:38.858Z,99.99
2018-03-22T11:11:38.870Z,99.99
2018-03-22T11:12:38.855Z,99.99
2018-03-22T11:13:38.819Z,99.99
2018-03-22T11:14:38.807Z,99.99
2018-03-22T11:15:38.803Z,99.99
2018-03-22T11:16:38.786Z,99.99
2018-03-22T11:17:38.771Z,99.99
2018-03-22T11:18:38.767Z,99.99
2018-03-22T11:19:38.788Z,99.99
2018-03-22T11:20:38.752Z,99.99
2018-03-22T11:21:38.483Z,99.99
2018-03-22T11:22:38.726Z,99.99
2018-03-22T11:23:38.456Z,99.99
2018-03-22T11:24:38.699Z,99.99
2018-03-22T11:25:38.428Z,99.99
2018-03-22T11:26:38.703Z,99.99
2018-03-22T11:27:38.687Z,99.99
2018-03-22T11:28:38.663Z,99.99
2018-03-22T11:29:38.419Z,99.99
2018-03-22T11:30:38.670Z,99.99
2018-03-22T11:31:38.658Z,99.99
2018-03-22T11:32:38.652Z,99.99
2018-03-22T11:33:38.635Z,99.99
2018-03-22T11:34:38.613Z,99.99
2018-03-22T11:35:38.340Z,99.87
2018-03-22T11:36:38.587Z,99.3
2018-03-22T11:37:38.583Z,99.3
2018-03-22T11:38:38.555Z,99.68
2018-03-22T11:39:38.546Z,99.11
2018-03-22T11:40:38.529Z,98.73
2018-03-22T11:41:38.296Z,98.83
2018-03-22T11:42:38.532Z,99.11
2018-03-22T11:43:38.232Z,99.3
2018-03-22T11:44:38.528Z,99.68
2018-03-22T11:45:38.509Z,98.64
2018-03-22T11:46:38.467Z,98.26
2018-03-22T11:47:38.201Z,98.92
2018-03-22T11:48:38.446Z,98.16
2018-03-22T11:49:38.437Z,98.07
2018-03-22T11:50:38.173Z,97.78
2018-03-22T11:51:38.403Z,97.69
2018-03-22T11:52:38.409Z,97.31
2018-03-22T11:53:38.382Z,97.31
2018-03-22T11:54:38.112Z,98.16
2018-03-22T11:55:38.368Z,97.97
2018-03-22T11:56:38.361Z,99.02
2018-03-22T11:57:38.338Z,98.64
2018-03-22T11:58:38.323Z,98.54
2018-03-22T11:59:38.061Z,98.59
2018-03-22T12:00:38.302Z,98.69
2018-03-22T12:01:38.300Z,98.02
2018-03-22T12:02:38.294Z,97.83
2018-03-22T12:03:38.290Z,97.64
2018-03-22T12:04:38.008Z,97.64
2018-03-22T12:05:38.250Z,97.45
2018-03-22T12:06:38.249Z,96.69
2018-03-22T12:07:38.238Z,96.5
2018-03-22T12:08:38.235Z,97.07
2018-03-22T12:09:38.303Z,97.07
2018-03-22T12:10:38.285Z,96.88
2018-03-22T12:11:38.219Z,96.69
2018-03-22T12:12:38.266Z,96.22
2018-03-22T12:13:38.205Z,96.31
2018-03-22T12:14:38.160Z,96.12
2018-03-22T12:15:38.198Z,96.41
2018-03-22T12:16:38.142Z,96.88
2018-03-22T12:17:37.873Z,96.41
2018-03-22T12:18:38.502Z,96.22
2018-03-22T12:19:38.142Z,96.08
2018-03-22T12:20:38.105Z,96.26
2018-03-22T12:21:38.161Z,96.36
2018-03-22T12:22:37.822Z,96.83
2018-03-22T12:23:38.067Z,96.45
2018-03-22T12:24:38.058Z,97.31
2018-03-22T12:25:37.794Z,97.22
2018-03-22T12:26:38.040Z,97.41
2018-03-22T12:27:37.805Z,97.41
2018-03-22T12:28:38.015Z,97.5
2018-03-22T12:29:38.449Z,97.69
2018-03-22T12:30:37.990Z,97.12
2018-03-22T12:31:37.989Z,97.41
2018-03-22T12:32:37.969Z,97.6
2018-03-22T12:33:37.958Z,98.16
2018-03-22T12:34:37.957Z,97.78
2018-03-22T12:35:37.944Z,97.69
2018-03-22T12:36:37.939Z,97.69
2018-03-22T12:37:37.934Z,98.02
2018-03-22T12:38:37.933Z,98.12
2018-03-22T12:39:37.945Z,98.02
2018-03-22T12:40:37.922Z,97.45
2018-03-22T12:41:37.896Z,97.22
2018-03-22T12:42:37.868Z,97.64
2018-03-22T12:43:37.914Z,97.02
2018-03-22T12:44:37.842Z,97.41
2018-03-22T12:45:37.837Z,97.36
2018-03-22T12:46:37.833Z,97.02
2018-03-22T12:47:37.806Z,97.64
2018-03-22T12:48:37.797Z,97.02
2018-03-22T12:49:37.798Z,97.6
2018-03-22T12:50:37.789Z,97.27
2018-03-22T12:51:37.772Z,97.5
2018-03-22T12:52:37.770Z,97.92
2018-03-22T12:53:37.493Z,97.83
2018-03-22T12:54:37.487Z,97.27
2018-03-22T12:55:37.724Z,97.27